sensor_id;sensor_type;location;lat;lon;timestamp;pressure;altitude;pressure_sealevel;temperature;humidity
28432;BME280;15664;51.302;7.744;2023-04-02T00:01:44;83303.84;;;-146.98;100.00
28432;BME280;15664;51.302;7.744;2023-04-02T00:04:18;83289.59;;;-146.98;100.00
28432;BME280;15664;51.302;7.744;2023-04-02T00:06:48;83257.00;;;-146.98;100.00
28432;BME280;15664;51.302;7.744;2023-04-02T00:09:29;83291.63;;;-146.98;100.00
28432;BME280;15664;51.302;7.744;2023-04-02T00:11:55;83342.53;;;-146.98;100.00
28432;BME280;15664;51.302;7.744;2023-04-02T00:14:30;83375.13;;;-146.98;100.00
28432;BME280;15664;51.302;7.744;2023-04-02T00:17:00;83352.72;;;-146.98;100.00
28432;BME280;15664;51.302;7.744;2023-04-02T00:19:35;83417.88;;;-146.98;100.00
28432;BME280;15664;51.302;7.744;2023-04-02T00:22:06;83366.97;;;-146.98;100.00
28432;BME280;15664;51.302;7.744;2023-04-02T00:24:32;83385.31;;;-146.98;100.00
28432;BME280;15664;51.302;7.744;2023-04-02T00:26:58;83364.94;;;-146.98;100.00
28432;BME280;15664;51.302;7.744;2023-04-02T00:29:24;83360.88;;;-146.98;100.00
28432;BME280;15664;51.302;7.744;2023-04-02T00:31:51;83375.13;;;-146.98;100.00
28432;BME280;15664;51.302;7.744;2023-04-02T00:34:31;83407.69;;;-146.98;100.00
28432;BME280;15664;51.302;7.744;2023-04-02T00:36:58;83377.16;;;-146.98;100.00
28432;BME280;15664;51.302;7.744;2023-04-02T00:39:25;83401.59;;;-146.98;100.00
28432;BME280;15664;51.302;7.744;2023-04-02T00:41:54;83417.88;;;-146.98;100.00
28432;BME280;15664;51.302;7.744;2023-04-02T00:44:36;83401.59;;;-146.98;100.00
28432;BME280;15664;51.302;7.744;2023-04-02T00:47:24;83426.03;;;-146.98;100.00
28432;BME280;15664;51.302;7.744;2023-04-02T00:49:58;83444.34;;;-146.98;100.00
28432;BME280;15664;51.302;7.744;2023-04-02T00:52:28;83415.84;;;-146.98;100.00
28432;BME280;15664;51.302;7.744;2023-04-02T00:57:30;83409.75;;;-146.98;100.00
28432;BME280;15664;51.302;7.744;2023-04-02T01:00:00;83458.63;;;-146.98;100.00
28432;BME280;15664;51.302;7.744;2023-04-02T01:02:33;83442.31;;;-146.98;100.00
28432;BME280;15664;51.302;7.744;2023-04-02T01:07:49;83489.16;;;-146.98;100.00
28432;BME280;15664;51.302;7.744;2023-04-02T01:13:16;83450.47;;;-146.98;100.00
28432;BME280;15664;51.302;7.744;2023-04-02T01:15:54;83456.56;;;-146.98;100.00
28432;BME280;15664;51.302;7.744;2023-04-02T01:18:36;83464.72;;;-146.98;100.00
28432;BME280;15664;51.302;7.744;2023-04-02T01:21:11;83466.75;;;-146.98;100.00
28432;BME280;15664;51.302;7.744;2023-04-02T01:26:47;83523.78;;;-146.98;100.00
28432;BME280;15664;51.302;7.744;2023-04-02T01:29:31;83487.13;;;-146.98;100.00
28432;BME280;15664;51.302;7.744;2023-04-02T01:32:01;83448.44;;;-146.98;100.00
28432;BME280;15664;51.302;7.744;2023-04-02T01:34:29;83487.13;;;-146.98;100.00
28432;BME280;15664;51.302;7.744;2023-04-02T01:37:16;83505.47;;;-146.98;100.00
28432;BME280;15664;51.302;7.744;2023-04-02T01:40:09;83493.25;;;-146.98;100.00
28432;BME280;15664;51.302;7.744;2023-04-02T01:45:35;83497.31;;;-146.98;100.00
28432;BME280;15664;51.302;7.744;2023-04-02T01:48:17;83519.72;;;-146.98;100.00
28432;BME280;15664;51.302;7.744;2023-04-02T01:50:47;83527.84;;;-146.98;100.00
28432;BME280;15664;51.302;7.744;2023-04-02T01:53:15;83444.34;;;-146.98;100.00
28432;BME280;15664;51.302;7.744;2023-04-02T01:55:58;83523.78;;;-146.98;100.00
28432;BME280;15664;51.302;7.744;2023-04-02T01:58:29;83527.84;;;-146.98;100.00
28432;BME280;15664;51.302;7.744;2023-04-02T02:01:02;83538.03;;;-146.98;100.00
28432;BME280;15664;51.302;7.744;2023-04-02T02:03:30;83507.50;;;-146.98;100.00
28432;BME280;15664;51.302;7.744;2023-04-02T02:05:57;83546.19;;;-146.98;100.00
28432;BME280;15664;51.302;7.744;2023-04-02T02:08:52;83515.63;;;-146.98;100.00
28432;BME280;15664;51.302;7.744;2023-04-02T02:11:22;83527.84;;;-146.98;100.00
28432;BME280;15664;51.302;7.744;2023-04-02T02:13:57;83531.94;;;-146.98;100.00
28432;BME280;15664;51.302;7.744;2023-04-02T02:16:25;83542.13;;;-146.98;100.00
28432;BME280;15664;51.302;7.744;2023-04-02T02:18:57;83527.84;;;-146.98;100.00
28432;BME280;15664;51.302;7.744;2023-04-02T02:21:38;83544.16;;;-146.98;100.00
28432;BME280;15664;51.302;7.744;2023-04-02T02:24:10;83552.31;;;-146.98;100.00
28432;BME280;15664;51.302;7.744;2023-04-02T02:26:41;83564.53;;;-146.98;100.00
28432;BME280;15664;51.302;7.744;2023-04-02T02:29:10;83525.81;;;-146.98;100.00
28432;BME280;15664;51.302;7.744;2023-04-02T02:31:41;83584.88;;;-146.98;100.00
28432;BME280;15664;51.302;7.744;2023-04-02T02:34:23;83584.88;;;-146.98;100.00
28432;BME280;15664;51.302;7.744;2023-04-02T02:36:52;83540.06;;;-146.98;100.00
28432;BME280;15664;51.302;7.744;2023-04-02T02:39:24;83564.53;;;-146.98;100.00
28432;BME280;15664;51.302;7.744;2023-04-02T02:41:56;83576.75;;;-146.98;100.00
28432;BME280;15664;51.302;7.744;2023-04-02T02:44:27;83593.03;;;-146.98;100.00
28432;BME280;15664;51.302;7.744;2023-04-02T02:46:59;83552.31;;;-146.98;100.00
28432;BME280;15664;51.302;7.744;2023-04-02T02:49:32;83603.22;;;-146.98;100.00
28432;BME280;15664;51.302;7.744;2023-04-02T02:54:52;83517.69;;;-146.98;100.00
28432;BME280;15664;51.302;7.744;2023-04-02T02:57:25;83588.97;;;-146.98;100.00
28432;BME280;15664;51.302;7.744;2023-04-02T02:59:54;83641.91;;;-146.98;100.00
28432;BME280;15664;51.302;7.744;2023-04-02T03:02:23;83603.22;;;-146.98;100.00
28432;BME280;15664;51.302;7.744;2023-04-02T03:04:53;83601.19;;;-146.98;100.00
28432;BME280;15664;51.302;7.744;2023-04-02T03:07:24;83617.47;;;-146.98;100.00
28432;BME280;15664;51.302;7.744;2023-04-02T03:10:05;83648.03;;;-146.98;100.00
28432;BME280;15664;51.302;7.744;2023-04-02T03:12:44;83635.81;;;-146.98;100.00
28432;BME280;15664;51.302;7.744;2023-04-02T03:15:39;83617.47;;;-146.98;100.00
28432;BME280;15664;51.302;7.744;2023-04-02T03:18:22;83631.72;;;-146.98;100.00
28432;BME280;15664;51.302;7.744;2023-04-02T03:20:55;83666.34;;;-146.98;100.00
28432;BME280;15664;51.302;7.744;2023-04-02T03:23:28;83641.91;;;-146.98;100.00
28432;BME280;15664;51.302;7.744;2023-04-02T03:26:37;83625.63;;;-146.98;100.00
28432;BME280;15664;51.302;7.744;2023-04-02T03:29:05;83637.84;;;-146.98;100.00
28432;BME280;15664;51.302;7.744;2023-04-02T03:32:11;83613.41;;;-146.98;100.00
28432;BME280;15664;51.302;7.744;2023-04-02T03:34:54;83601.19;;;-146.98;100.00
28432;BME280;15664;51.302;7.744;2023-04-02T03:37:27;83648.03;;;-146.98;100.00
28432;BME280;15664;51.302;7.744;2023-04-02T03:40:00;83621.53;;;-146.98;100.00
28432;BME280;15664;51.302;7.744;2023-04-02T03:42:40;83603.22;;;-146.98;100.00
28432;BME280;15664;51.302;7.744;2023-04-02T03:45:14;83686.72;;;-146.98;100.00
28432;BME280;15664;51.302;7.744;2023-04-02T03:47:57;83648.03;;;-146.98;100.00
28432;BME280;15664;51.302;7.744;2023-04-02T03:50:39;83617.47;;;-146.98;100.00
28432;BME280;15664;51.302;7.744;2023-04-02T03:53:08;83668.38;;;-146.98;100.00
28432;BME280;15664;51.302;7.744;2023-04-02T03:55:37;83672.47;;;-146.98;100.00
28432;BME280;15664;51.302;7.744;2023-04-02T03:58:20;83676.53;;;-146.98;100.00
28432;BME280;15664;51.302;7.744;2023-04-02T04:00:59;83690.78;;;-146.98;100.00
28432;BME280;15664;51.302;7.744;2023-04-02T04:03:36;83662.28;;;-146.98;100.00
28432;BME280;15664;51.302;7.744;2023-04-02T04:06:18;83662.28;;;-146.98;100.00
28432;BME280;15664;51.302;7.744;2023-04-02T04:08:50;83645.97;;;-146.98;100.00
28432;BME280;15664;51.302;7.744;2023-04-02T04:11:24;83625.63;;;-146.98;100.00
28432;BME280;15664;51.302;7.744;2023-04-02T04:16:58;83672.47;;;-146.98;100.00
28432;BME280;15664;51.302;7.744;2023-04-02T04:19:38;83654.13;;;-146.98;100.00
28432;BME280;15664;51.302;7.744;2023-04-02T04:22:10;83654.13;;;-146.98;100.00
28432;BME280;15664;51.302;7.744;2023-04-02T04:24:40;83654.13;;;-146.98;100.00
28432;BME280;15664;51.302;7.744;2023-04-02T04:27:30;83692.81;;;-146.98;100.00
28432;BME280;15664;51.302;7.744;2023-04-02T04:30:15;83737.63;;;-146.98;100.00
28432;BME280;15664;51.302;7.744;2023-04-02T04:33:04;83719.31;;;-146.98;100.00
28432;BME280;15664;51.302;7.744;2023-04-02T04:35:37;83639.88;;;-146.98;100.00
28432;BME280;15664;51.302;7.744;2023-04-02T04:38:18;83666.34;;;-146.98;100.00
28432;BME280;15664;51.302;7.744;2023-04-02T04:40:50;83603.22;;;-146.98;100.00
28432;BME280;15664;51.302;7.744;2023-04-02T04:43:35;83676.53;;;-146.98;100.00
28432;BME280;15664;51.302;7.744;2023-04-02T04:46:30;83652.09;;;-146.98;100.00
28432;BME280;15664;51.302;7.744;2023-04-02T04:49:01;83684.69;;;-146.98;100.00
28432;BME280;15664;51.302;7.744;2023-04-02T04:54:37;83709.13;;;-146.98;100.00
28432;BME280;15664;51.302;7.744;2023-04-02T04:57:05;83656.16;;;-146.98;100.00
28432;BME280;15664;51.302;7.744;2023-04-02T04:59:48;83694.88;;;-146.98;100.00
28432;BME280;15664;51.302;7.744;2023-04-02T05:02:19;83666.34;;;-146.98;100.00
28432;BME280;15664;51.302;7.744;2023-04-02T05:04:49;83690.78;;;-146.98;100.00
28432;BME280;15664;51.302;7.744;2023-04-02T05:07:22;83694.88;;;-146.98;100.00
28432;BME280;15664;51.302;7.744;2023-04-02T05:09:57;83680.59;;;-146.98;100.00
28432;BME280;15664;51.302;7.744;2023-04-02T05:12:37;83670.44;;;-146.98;100.00
28432;BME280;15664;51.302;7.744;2023-04-02T05:15:21;83705.03;;;-146.98;100.00
28432;BME280;15664;51.302;7.744;2023-04-02T05:18:11;83713.19;;;-146.98;100.00
28432;BME280;15664;51.302;7.744;2023-04-02T05:20:46;83749.84;;;-146.98;100.00
28432;BME280;15664;51.302;7.744;2023-04-02T05:23:27;83715.22;;;-146.98;100.00
28432;BME280;15664;51.302;7.744;2023-04-02T05:26:01;83668.38;;;-146.98;100.00
28432;BME280;15664;51.302;7.744;2023-04-02T05:31:11;83696.91;;;-146.98;100.00
28432;BME280;15664;51.302;7.744;2023-04-02T05:33:44;83707.09;;;-146.98;100.00
28432;BME280;15664;51.302;7.744;2023-04-02T05:36:17;83690.78;;;-146.98;100.00
28432;BME280;15664;51.302;7.744;2023-04-02T05:38:49;83753.94;;;-146.98;100.00
28432;BME280;15664;51.302;7.744;2023-04-02T05:41:23;83707.09;;;-146.98;100.00
28432;BME280;15664;51.302;7.744;2023-04-02T05:46:34;83755.97;;;-146.98;100.00
28432;BME280;15664;51.302;7.744;2023-04-02T05:49:06;83709.13;;;-146.98;100.00
28432;BME280;15664;51.302;7.744;2023-04-02T05:51:41;83711.16;;;-146.98;100.00
28432;BME280;15664;51.302;7.744;2023-04-02T05:54:29;83747.81;;;-146.98;100.00
28432;BME280;15664;51.302;7.744;2023-04-02T05:57:08;83760.03;;;-146.98;100.00
28432;BME280;15664;51.302;7.744;2023-04-02T05:59:39;83753.94;;;-146.98;100.00
28432;BME280;15664;51.302;7.744;2023-04-02T06:02:24;83737.63;;;-146.98;100.00
28432;BME280;15664;51.302;7.744;2023-04-02T06:07:45;83764.13;;;-146.98;100.00
28432;BME280;15664;51.302;7.744;2023-04-02T06:10:19;83764.13;;;-146.98;100.00
28432;BME280;15664;51.302;7.744;2023-04-02T06:12:52;83731.53;;;-146.98;100.00
28432;BME280;15664;51.302;7.744;2023-04-02T06:15:21;83753.94;;;-146.98;100.00
28432;BME280;15664;51.302;7.744;2023-04-02T06:18:17;83776.34;;;-146.98;100.00
28432;BME280;15664;51.302;7.744;2023-04-02T06:20:45;83737.63;;;-146.98;100.00
28432;BME280;15664;51.302;7.744;2023-04-02T06:23:40;83731.53;;;-146.98;100.00
28432;BME280;15664;51.302;7.744;2023-04-02T06:31:46;83776.34;;;-146.98;100.00
28432;BME280;15664;51.302;7.744;2023-04-02T06:34:21;83784.47;;;-146.98;100.00
28432;BME280;15664;51.302;7.744;2023-04-02T06:39:45;83755.97;;;-146.98;100.00
28432;BME280;15664;51.302;7.744;2023-04-02T06:42:20;83758.00;;;-146.98;100.00
28432;BME280;15664;51.302;7.744;2023-04-02T06:44:57;83825.22;;;-146.98;100.00
28432;BME280;15664;51.302;7.744;2023-04-02T06:47:45;83741.72;;;-146.98;100.00
28432;BME280;15664;51.302;7.744;2023-04-02T06:50:26;83747.81;;;-146.98;100.00
28432;BME280;15664;51.302;7.744;2023-04-02T06:53:10;83723.38;;;-146.98;100.00
28432;BME280;15664;51.302;7.744;2023-04-02T06:58:24;83766.16;;;-146.98;100.00
28432;BME280;15664;51.302;7.744;2023-04-02T07:00:51;83727.44;;;-146.98;100.00
28432;BME280;15664;51.302;7.744;2023-04-02T07:03:27;83727.44;;;-146.98;100.00
28432;BME280;15664;51.302;7.744;2023-04-02T07:05:56;83755.97;;;-146.98;100.00
28432;BME280;15664;51.302;7.744;2023-04-02T07:08:23;83725.41;;;-146.98;100.00
28432;BME280;15664;51.302;7.744;2023-04-02T07:10:49;83727.44;;;-146.98;100.00
28432;BME280;15664;51.302;7.744;2023-04-02T07:13:17;83780.41;;;-146.98;100.00
28432;BME280;15664;51.302;7.744;2023-04-02T07:15:44;83796.69;;;-146.98;100.00
28432;BME280;15664;51.302;7.744;2023-04-02T07:18:32;83810.97;;;-146.98;100.00
28432;BME280;15664;51.302;7.744;2023-04-02T07:21:01;83739.66;;;-146.98;100.00
28432;BME280;15664;51.302;7.744;2023-04-02T07:23:26;83753.94;;;-146.98;100.00
28432;BME280;15664;51.302;7.744;2023-04-02T07:25:53;83772.25;;;-146.98;100.00
28432;BME280;15664;51.302;7.744;2023-04-02T07:28:19;83780.41;;;-146.98;100.00
28432;BME280;15664;51.302;7.744;2023-04-02T07:30:45;83784.47;;;-146.98;100.00
28432;BME280;15664;51.302;7.744;2023-04-02T07:33:19;83766.16;;;-146.98;100.00
28432;BME280;15664;51.302;7.744;2023-04-02T07:35:45;83707.09;;;-146.98;100.00
28432;BME280;15664;51.302;7.744;2023-04-02T07:38:11;83747.81;;;-146.98;100.00
28432;BME280;15664;51.302;7.744;2023-04-02T07:40:37;83782.44;;;-146.98;100.00
28432;BME280;15664;51.302;7.744;2023-04-02T07:43:03;83737.63;;;-146.98;100.00
28432;BME280;15664;51.302;7.744;2023-04-02T07:45:29;83796.69;;;-146.98;100.00
28432;BME280;15664;51.302;7.744;2023-04-02T07:47:54;83743.75;;;-146.98;100.00
28432;BME280;15664;51.302;7.744;2023-04-02T07:50:20;83780.41;;;-146.98;100.00
28432;BME280;15664;51.302;7.744;2023-04-02T07:52:45;83731.53;;;-146.98;100.00
28432;BME280;15664;51.302;7.744;2023-04-02T07:55:13;83768.19;;;-146.98;100.00
28432;BME280;15664;51.302;7.744;2023-04-02T07:57:47;83737.63;;;-146.98;100.00
28432;BME280;15664;51.302;7.744;2023-04-02T08:00:14;83784.47;;;-146.98;100.00
28432;BME280;15664;51.302;7.744;2023-04-02T08:02:40;83794.66;;;-146.98;100.00
28432;BME280;15664;51.302;7.744;2023-04-02T08:05:06;83774.28;;;-146.98;100.00
28432;BME280;15664;51.302;7.744;2023-04-02T08:07:32;83786.50;;;-146.98;100.00
28432;BME280;15664;51.302;7.744;2023-04-02T08:09:58;83786.50;;;-146.98;100.00
28432;BME280;15664;51.302;7.744;2023-04-02T08:12:23;83774.28;;;-146.98;100.00
28432;BME280;15664;51.302;7.744;2023-04-02T08:14:49;83796.69;;;-146.98;100.00
28432;BME280;15664;51.302;7.744;2023-04-02T08:17:14;83806.88;;;-146.98;100.00
28432;BME280;15664;51.302;7.744;2023-04-02T08:19:40;83790.59;;;-146.98;100.00
28432;BME280;15664;51.302;7.744;2023-04-02T08:22:06;83768.19;;;-146.98;100.00
28432;BME280;15664;51.302;7.744;2023-04-02T08:24:32;83778.38;;;-146.98;100.00
28432;BME280;15664;51.302;7.744;2023-04-02T08:26:57;83808.91;;;-146.98;100.00
28432;BME280;15664;51.302;7.744;2023-04-02T08:29:23;83768.19;;;-146.98;100.00
28432;BME280;15664;51.302;7.744;2023-04-02T08:31:49;83790.59;;;-146.98;100.00
28432;BME280;15664;51.302;7.744;2023-04-02T08:34:14;83760.03;;;-146.98;100.00
28432;BME280;15664;51.302;7.744;2023-04-02T08:36:43;83739.66;;;-146.98;100.00
28432;BME280;15664;51.302;7.744;2023-04-02T08:39:09;83760.03;;;-146.98;100.00
28432;BME280;15664;51.302;7.744;2023-04-02T08:41:44;83796.69;;;-146.98;100.00
28432;BME280;15664;51.302;7.744;2023-04-02T08:46:44;83719.31;;;-146.98;100.00
28432;BME280;15664;51.302;7.744;2023-04-02T08:49:16;83758.00;;;-146.98;100.00
28432;BME280;15664;51.302;7.744;2023-04-02T08:51:43;83762.06;;;-146.98;100.00
28432;BME280;15664;51.302;7.744;2023-04-02T08:54:27;83800.78;;;-146.98;100.00
28432;BME280;15664;51.302;7.744;2023-04-02T08:56:57;83776.34;;;-146.98;100.00
28432;BME280;15664;51.302;7.744;2023-04-02T08:59:31;83768.19;;;-146.98;100.00
28432;BME280;15664;51.302;7.744;2023-04-02T09:04:48;83758.00;;;-146.98;100.00
28432;BME280;15664;51.302;7.744;2023-04-02T09:07:15;83790.59;;;-146.98;100.00
28432;BME280;15664;51.302;7.744;2023-04-02T09:09:41;83760.03;;;-146.98;100.00
28432;BME280;15664;51.302;7.744;2023-04-02T09:12:28;83743.75;;;-146.98;100.00
28432;BME280;15664;51.302;7.744;2023-04-02T09:17:35;83810.97;;;-146.98;100.00
28432;BME280;15664;51.302;7.744;2023-04-02T09:20:23;83762.06;;;-146.98;100.00
28432;BME280;15664;51.302;7.744;2023-04-02T09:22:51;83817.06;;;-146.98;100.00
28432;BME280;15664;51.302;7.744;2023-04-02T09:25:24;83796.69;;;-146.98;100.00
28432;BME280;15664;51.302;7.744;2023-04-02T09:27:56;83792.63;;;-146.98;100.00
28432;BME280;15664;51.302;7.744;2023-04-02T09:32:59;83762.06;;;-146.98;100.00
28432;BME280;15664;51.302;7.744;2023-04-02T09:35:28;83755.97;;;-146.98;100.00
28432;BME280;15664;51.302;7.744;2023-04-02T09:45:57;83774.28;;;-146.98;100.00
28432;BME280;15664;51.302;7.744;2023-04-02T09:48:34;83741.72;;;-146.98;100.00
28432;BME280;15664;51.302;7.744;2023-04-02T09:53:36;83755.97;;;-146.98;100.00
28432;BME280;15664;51.302;7.744;2023-04-02T09:56:14;83813.00;;;-146.98;100.00
28432;BME280;15664;51.302;7.744;2023-04-02T09:58:42;83715.22;;;-146.98;100.00
28432;BME280;15664;51.302;7.744;2023-04-02T10:01:29;83743.75;;;-146.98;100.00
28432;BME280;15664;51.302;7.744;2023-04-02T10:03:55;83698.94;;;-146.98;100.00
28432;BME280;15664;51.302;7.744;2023-04-02T10:06:21;83806.88;;;-146.98;100.00
28432;BME280;15664;51.302;7.744;2023-04-02T10:08:46;83751.91;;;-146.98;100.00
28432;BME280;15664;51.302;7.744;2023-04-02T10:11:19;83749.84;;;-146.98;100.00
28432;BME280;15664;51.302;7.744;2023-04-02T10:21:35;83770.22;;;-146.98;100.00
28432;BME280;15664;51.302;7.744;2023-04-02T10:24:18;83776.34;;;-146.98;100.00
28432;BME280;15664;51.302;7.744;2023-04-02T10:31:59;83788.56;;;-146.98;100.00
28432;BME280;15664;51.302;7.744;2023-04-02T10:34:34;83760.03;;;-146.98;100.00
28432;BME280;15664;51.302;7.744;2023-04-02T10:37:17;83739.66;;;-146.98;100.00
28432;BME280;15664;51.302;7.744;2023-04-02T10:39:56;83755.97;;;-146.98;100.00
28432;BME280;15664;51.302;7.744;2023-04-02T10:42:36;83739.66;;;-146.98;100.00
28432;BME280;15664;51.302;7.744;2023-04-02T10:45:36;83749.84;;;-146.98;100.00
28432;BME280;15664;51.302;7.744;2023-04-02T10:48:09;83739.66;;;-146.98;100.00
28432;BME280;15664;51.302;7.744;2023-04-02T10:51:03;83753.94;;;-146.98;100.00
28432;BME280;15664;51.302;7.744;2023-04-02T10:56:21;83788.56;;;-146.98;100.00
28432;BME280;15664;51.302;7.744;2023-04-02T10:59:04;83715.22;;;-146.98;100.00
28432;BME280;15664;51.302;7.744;2023-04-02T11:01:32;83737.63;;;-146.98;100.00
28432;BME280;15664;51.302;7.744;2023-04-02T11:04:03;83778.38;;;-146.98;100.00
28432;BME280;15664;51.302;7.744;2023-04-02T11:06:37;83719.31;;;-146.98;100.00
28432;BME280;15664;51.302;7.744;2023-04-02T11:09:13;83719.31;;;-146.98;100.00
28432;BME280;15664;51.302;7.744;2023-04-02T11:11:42;83725.41;;;-146.98;100.00
28432;BME280;15664;51.302;7.744;2023-04-02T11:14:17;83760.03;;;-146.98;100.00
28432;BME280;15664;51.302;7.744;2023-04-02T11:16:47;83755.97;;;-146.98;100.00
28432;BME280;15664;51.302;7.744;2023-04-02T11:21:50;83711.16;;;-146.98;100.00
28432;BME280;15664;51.302;7.744;2023-04-02T11:29:39;83719.31;;;-146.98;100.00
28432;BME280;15664;51.302;7.744;2023-04-02T11:37:39;83723.38;;;-146.98;100.00
28432;BME280;15664;51.302;7.744;2023-04-02T11:42:38;83688.75;;;-146.98;100.00
28432;BME280;15664;51.302;7.744;2023-04-02T11:55:35;83686.72;;;-146.98;100.00
28432;BME280;15664;51.302;7.744;2023-04-02T12:01:22;83719.31;;;-146.98;100.00
28432;BME280;15664;51.302;7.744;2023-04-02T12:04:10;83607.28;;;-146.98;100.00
28432;BME280;15664;51.302;7.744;2023-04-02T12:11:54;83709.13;;;-146.98;100.00
28432;BME280;15664;51.302;7.744;2023-04-02T12:14:43;83698.94;;;-146.98;100.00
28432;BME280;15664;51.302;7.744;2023-04-02T12:20:21;83641.91;;;-146.98;100.00
28432;BME280;15664;51.302;7.744;2023-04-02T12:22:50;83670.44;;;-146.98;100.00
28432;BME280;15664;51.302;7.744;2023-04-02T12:27:47;83711.16;;;-146.98;100.00
28432;BME280;15664;51.302;7.744;2023-04-02T12:30:18;83686.72;;;-146.98;100.00
28432;BME280;15664;51.302;7.744;2023-04-02T12:32:44;83688.75;;;-146.98;100.00
28432;BME280;15664;51.302;7.744;2023-04-02T12:35:33;83709.13;;;-146.98;100.00
28432;BME280;15664;51.302;7.744;2023-04-02T12:37:59;83703.00;;;-146.98;100.00
28432;BME280;15664;51.302;7.744;2023-04-02T12:40:26;83645.97;;;-146.98;100.00
28432;BME280;15664;51.302;7.744;2023-04-02T12:42:52;83684.69;;;-146.98;100.00
28432;BME280;15664;51.302;7.744;2023-04-02T12:45:31;83645.97;;;-146.98;100.00
28432;BME280;15664;51.302;7.744;2023-04-02T12:48:02;83672.47;;;-146.98;100.00
28432;BME280;15664;51.302;7.744;2023-04-02T12:50:30;83670.44;;;-146.98;100.00
28432;BME280;15664;51.302;7.744;2023-04-02T12:52:58;83637.84;;;-146.98;100.00
28432;BME280;15664;51.302;7.744;2023-04-02T12:55:25;83690.78;;;-146.98;100.00
28432;BME280;15664;51.302;7.744;2023-04-02T12:57:56;83654.13;;;-146.98;100.00
28432;BME280;15664;51.302;7.744;2023-04-02T13:05:52;83678.56;;;-146.98;100.00
28432;BME280;15664;51.302;7.744;2023-04-02T13:08:24;83678.56;;;-146.98;100.00
28432;BME280;15664;51.302;7.744;2023-04-02T13:11:02;83688.75;;;-146.98;100.00
28432;BME280;15664;51.302;7.744;2023-04-02T13:13:36;83682.66;;;-146.98;100.00
28432;BME280;15664;51.302;7.744;2023-04-02T13:16:23;83660.25;;;-146.98;100.00
28432;BME280;15664;51.302;7.744;2023-04-02T13:18:50;83654.13;;;-146.98;100.00
28432;BME280;15664;51.302;7.744;2023-04-02T13:23:41;83662.28;;;-146.98;100.00
28432;BME280;15664;51.302;7.744;2023-04-02T13:26:18;83686.72;;;-146.98;100.00
28432;BME280;15664;51.302;7.744;2023-04-02T13:29:16;83678.56;;;-146.98;100.00
28432;BME280;15664;51.302;7.744;2023-04-02T13:31:43;83625.63;;;-146.98;100.00
28432;BME280;15664;51.302;7.744;2023-04-02T13:34:08;83660.25;;;-146.98;100.00
28432;BME280;15664;51.302;7.744;2023-04-02T13:36:34;83654.13;;;-146.98;100.00
28432;BME280;15664;51.302;7.744;2023-04-02T13:38:59;83674.50;;;-146.98;100.00
28432;BME280;15664;51.302;7.744;2023-04-02T13:41:27;83662.28;;;-146.98;100.00
28432;BME280;15664;51.302;7.744;2023-04-02T13:43:55;83645.97;;;-146.98;100.00
28432;BME280;15664;51.302;7.744;2023-04-02T13:46:24;83678.56;;;-146.98;100.00
28432;BME280;15664;51.302;7.744;2023-04-02T13:48:52;83643.94;;;-146.98;100.00
28432;BME280;15664;51.302;7.744;2023-04-02T13:51:19;83727.44;;;-146.98;100.00
28432;BME280;15664;51.302;7.744;2023-04-02T13:53:46;83711.16;;;-146.98;100.00
28432;BME280;15664;51.302;7.744;2023-04-02T13:56:13;83715.22;;;-146.98;100.00
28432;BME280;15664;51.302;7.744;2023-04-02T13:58:39;83680.59;;;-146.98;100.00
28432;BME280;15664;51.302;7.744;2023-04-02T14:01:04;83729.50;;;-146.98;100.00
28432;BME280;15664;51.302;7.744;2023-04-02T14:03:30;83690.78;;;-146.98;99.12
28432;BME280;15664;51.302;7.744;2023-04-02T14:09:17;83721.34;;;-146.98;98.46
28432;BME280;15664;51.302;7.744;2023-04-02T14:12:05;83639.88;;;-146.98;96.85
28432;BME280;15664;51.302;7.744;2023-04-02T14:14:38;83645.97;;;-146.98;92.40
28432;BME280;15664;51.302;7.744;2023-04-02T14:19:58;83499.34;;;-146.98;90.93
28432;BME280;15664;51.302;7.744;2023-04-02T14:23:05;83627.66;;;-146.98;90.30
28432;BME280;15664;51.302;7.744;2023-04-02T14:28:36;83572.66;;;-146.98;86.72
28432;BME280;15664;51.302;7.744;2023-04-02T14:34:07;83560.44;;;-146.98;84.33
28432;BME280;15664;51.302;7.744;2023-04-02T14:39:53;83564.53;;;-146.98;80.89
28432;BME280;15664;51.302;7.744;2023-04-02T14:42:30;83540.06;;;-146.98;80.83
28432;BME280;15664;51.302;7.744;2023-04-02T14:45:06;83550.25;;;-146.98;82.22
28432;BME280;15664;51.302;7.744;2023-04-02T14:47:56;83552.31;;;-146.98;81.69
28432;BME280;15664;51.302;7.744;2023-04-02T14:50:48;83544.16;;;-146.98;81.52
28432;BME280;15664;51.302;7.744;2023-04-02T14:53:19;83523.78;;;-146.98;80.64
28432;BME280;15664;51.302;7.744;2023-04-02T14:55:48;83478.97;;;-146.98;82.21
28432;BME280;15664;51.302;7.744;2023-04-02T14:58:24;83521.75;;;-146.98;81.73
28432;BME280;15664;51.302;7.744;2023-04-02T15:00:55;83527.84;;;-146.98;78.40
28432;BME280;15664;51.302;7.744;2023-04-02T15:03:31;83529.91;;;-146.98;81.50
28432;BME280;15664;51.302;7.744;2023-04-02T15:06:02;83483.06;;;-146.98;82.48
28432;BME280;15664;51.302;7.744;2023-04-02T15:11:16;83525.81;;;-146.98;78.78
28432;BME280;15664;51.302;7.744;2023-04-02T15:14:00;83540.06;;;-146.98;76.42
28432;BME280;15664;51.302;7.744;2023-04-02T15:16:29;83491.19;;;-146.98;77.43
28432;BME280;15664;51.302;7.744;2023-04-02T15:18:58;83507.50;;;-146.98;77.77
28432;BME280;15664;51.302;7.744;2023-04-02T15:24:24;83560.44;;;-146.98;79.77
28432;BME280;15664;51.302;7.744;2023-04-02T15:32:43;83519.72;;;-146.98;75.75
28432;BME280;15664;51.302;7.744;2023-04-02T15:35:35;83588.97;;;-146.98;75.67
28432;BME280;15664;51.302;7.744;2023-04-02T15:38:17;83523.78;;;-146.98;77.42